Terminal Aerodrome Forecast
Issued by NWS

Home | Current Version | Previous Version | Text Only | Print | Product List | Glossary On
Versions: 1 2 3 4 5 6 7 8 9 10 11 12 13
000
FTUS46 KSEW 251100
TAFBLI
TAF
KBLI 251128Z 2512/2612 VRB03KT 5SM BR SCT001 SCT035
      TEMPO 2512/2514 1/2SM FG BKN001 BKN035
     FM251500 VRB03KT P6SM SCT025 BKN040 BKN060
     FM252200 20006KT P6SM SCT050 SCT100=

USA.gov is the U.S. government's official web portal to all federal, state and local government web resources and services.